^^
Datos históricos de la estación: Murcia-Puente Tocinos
Diario Informe para Enero 24, 2020 Unidades:  Inglés    Métrico   Ambas
Diario Semanal Mensual Anual Configurable
  Máximo: Mínimo: Media:
Temperatura: 58.5 °F 49.5 °F 53.2 °F
Punto de rocio: 50.9 °F 45.7 °F 48.4 °F
Humedad: 94% 74% 84%
Velocidad viento: 6mph 0mph 2.4mph
Racha viento: 12mph - -
Viento- - SSW
Presión: 30.2 in 30.1 in -
Precipitación: 0 in    
Historical Graphs
 
 
Tabla de datos para Enero 24, 2020
Hora Temperatura Punto de rocio Presión Viento Velocidad viento Racha viento Humedad Intensidad lluvia(por hora) Nubes
00:00 51.3 °F 49.6 °F 30.1 in Calm     94% 0 in FEW
00:05 51.3 °F 49.6 °F 30.1 in Calm     94% 0 in CLR
00:10 51.3 °F 49.6 °F 30.1 in Calm     94% 0 in CLR
00:15 51.3 °F 49.6 °F 30.1 in Calm     94% 0 in CLR
00:20 51.3 °F 49.6 °F 30.1 in Calm     94% 0 in CLR
00:25 51.3 °F 49.6 °F 30.1 in Calm     94% 0 in CLR
00:30 51.3 °F 49.6 °F 30.1 in Calm     94% 0 in CLR
00:35 51.3 °F 49.6 °F 30.1 in Calm     94% 0 in CLR
00:40 51.3 °F 49.6 °F 30.1 in Calm     94% 0 in CLR
00:45 51.3 °F 49.6 °F 30.1 in Calm     94% 0 in CLR
00:50 51.4 °F 49.8 °F 30.1 in Calm     94% 0 in FEW
00:55 51.4 °F 49.5 °F 30.1 in Calm     93% 0 in FEW
01:00 51.4 °F 49.5 °F 30.1 in Calm   5 mph 93% 0 in FEW
01:05 51.6 °F 49.6 °F 30.1 in West 2 mph 5 mph 93% 0 in FEW
01:10 51.6 °F 49.5 °F 30.1 in West 2 mph   92% 0 in FEW
01:15 51.6 °F 49.5 °F 30.1 in West 1 mph   92% 0 in FEW
01:20 51.4 °F 49.3 °F 30.1 in West 1 mph 1 mph 92% 0 in BKN
01:25 51.4 °F 49.3 °F 30.1 in Calm   4 mph 92% 0 in BKN
01:30 51.4 °F 49.1 °F 30.1 in Calm   3 mph 92% 0 in BKN
01:35 51.3 °F 48.9 °F 30.1 in SW 2 mph 5 mph 92% 0 in BKN
01:40 51.3 °F 48.9 °F 30.1 in South 2 mph 5 mph 92% 0 in BKN
01:45 51.3 °F 48.9 °F 30.1 in South 2 mph 3 mph 92% 0 in BKN
01:50 51.1 °F 48.7 °F 30.1 in South 2 mph 6 mph 92% 0 in SCT
01:55 51.1 °F 49.1 °F 30.1 in South 2 mph 5 mph 93% 0 in SCT
02:00 51.1 °F 49.1 °F 30.1 in SSW 2 mph 4 mph 93% 0 in FEW
02:05 51.1 °F 49.1 °F 30.1 in SSW 2 mph 5 mph 93% 0 in SCT
02:10 51.1 °F 49.1 °F 30.1 in SSW 2 mph 2 mph 93% 0 in SCT
02:15 51.1 °F 49.1 °F 30.1 in SW 2 mph 5 mph 93% 0 in SCT
02:20 51.1 °F 49.1 °F 30.1 in SW 2 mph 5 mph 93% 0 in CLR
02:25 51.1 °F 49.1 °F 30.1 in SSW 2 mph 5 mph 93% 0 in CLR
02:30 50.9 °F 48.9 °F 30.1 in SW 2 mph 6 mph 93% 0 in CLR
02:35 50.9 °F 48.9 °F 30.1 in SW 3 mph 6 mph 93% 0 in CLR
02:40 51.1 °F 49.1 °F 30.1 in WSW 3 mph 4 mph 93% 0 in CLR
02:45 51.1 °F 49.1 °F 30.1 in WSW 2 mph 3 mph 93% 0 in CLR
02:50 51.1 °F 49.1 °F 30.1 in WSW 2 mph   93% 0 in BKN
02:55 51.1 °F 49.1 °F 30.1 in Calm   1 mph 93% 0 in BKN
03:00 50.9 °F 48.7 °F 30.1 in Calm   5 mph 92% 0 in FEW
03:05 50.7 °F 48.6 °F 30.1 in SSE 2 mph 5 mph 92% 0 in BKN
03:10 50.5 °F 48.4 °F 30.1 in SSE 2 mph 6 mph 92% 0 in BKN
03:15 50.5 °F 48.4 °F 30.1 in South 3 mph 6 mph 92% 0 in BKN
03:20 50.4 °F 48.4 °F 30.1 in South 3 mph 6 mph 93% 0 in OVC
03:25 50.4 °F 48.4 °F 30.1 in SSE 3 mph 5 mph 93% 0 in OVC
03:30 50.4 °F 48.4 °F 30.1 in SSW 3 mph 5 mph 93% 0 in OVC
03:35 50.4 °F 48.4 °F 30.1 in SSW 2 mph 5 mph 93% 0 in OVC
03:40 50.4 °F 48.4 °F 30.1 in SSW 2 mph 6 mph 93% 0 in OVC
03:45 50.4 °F 48 °F 30.1 in SSW 3 mph 6 mph 92% 0 in OVC
03:50 50.4 °F 48 °F 30.1 in South 3 mph 5 mph 92% 0 in BKN
03:55 50.4 °F 48 °F 30.1 in SSW 3 mph 5 mph 92% 0 in BKN
04:00 50.4 °F 48 °F 30.1 in South 3 mph 5 mph 92% 0 in FEW
04:05 50.4 °F 48 °F 30.1 in South 2 mph 5 mph 92% 0 in BKN
04:10 50.4 °F 48 °F 30.1 in SSE 2 mph 5 mph 92% 0 in BKN
04:15 50.4 °F 48 °F 30.1 in South 2 mph 5 mph 92% 0 in BKN
04:20 50.4 °F 48 °F 30.1 in SSW 2 mph 6 mph 92% 0 in OVC
04:25 50.4 °F 48 °F 30.1 in SW 2 mph 5 mph 92% 0 in OVC
04:30 50.4 °F 48 °F 30.1 in SW 2 mph 2 mph 92% 0 in OVC
04:35 50.4 °F 48 °F 30.1 in SW 1 mph 5 mph 92% 0 in OVC
04:40 50.4 °F 47.8 °F 30.1 in SSW 1 mph 5 mph 91% 0 in OVC
04:45 50.2 °F 47.7 °F 30.1 in South 2 mph 5 mph 91% 0 in OVC
04:50 50.2 °F 47.7 °F 30.1 in South 2 mph 5 mph 91% 0 in OVC
04:55 50.2 °F 47.7 °F 30.1 in South 3 mph 7 mph 91% 0 in OVC
05:00 50 °F 47.5 °F 30.1 in South 3 mph 6 mph 91% 0 in FEW
05:05 49.8 °F 47.3 °F 30.1 in South 5 mph 6 mph 91% 0 in OVC
05:10 49.8 °F 46.9 °F 30.1 in South 5 mph 6 mph 90% 0 in OVC
05:15 49.8 °F 46.9 °F 30.1 in SSE 3 mph 6 mph 90% 0 in OVC
05:20 49.8 °F 46.9 °F 30.1 in SSE 3 mph 6 mph 90% 0 in OVC
05:25 49.8 °F 46.9 °F 30.1 in SSW 3.6 mph 3.5 mph 90% 0 in OVC
05:30 49.8 °F 46.9 °F 30.1 in SSW 3 mph 4 mph 90% 0 in OVC
05:35 50 °F 46.9 °F 30.1 in South 2 mph 5 mph 89% 0 in OVC
05:40 50 °F 46.9 °F 30.1 in South 2 mph 8 mph 89% 0 in OVC
05:45 50.2 °F 47.1 °F 30.1 in SSW 5 mph 9 mph 89% 0 in OVC
05:50 50.2 °F 47.1 °F 30.1 in SW 5 mph 5 mph 89% 0 in OVC
05:55 50.4 °F 47.1 °F 30.1 in WSW 3 mph 6 mph 89% 0 in OVC
06:00 50.4 °F 47.1 °F 30.1 in WSW 3 mph 5 mph 89% 0 in FEW
06:05 50.4 °F 46.9 °F 30.1 in WSW 2 mph 6 mph 88% 0 in OVC
06:10 50.4 °F 46.9 °F 30.1 in WSW 2 mph 6 mph 88% 0 in OVC
06:15 50.4 °F 46.9 °F 30.1 in SW 5 mph 5 mph 88% 0 in OVC
06:20 50.2 °F 46.8 °F 30.1 in SW 5 mph 5 mph 88% 0 in BKN
06:25 50.2 °F 46.8 °F 30.1 in SW 2 mph 5 mph 88% 0 in BKN
06:30 50.2 °F 46.8 °F 30.1 in SW 2 mph 4 mph 88% 0 in BKN
06:35 50.4 °F 46.9 °F 30.1 in SSW 2 mph 5 mph 88% 0 in BKN
06:40 50.4 °F 46.9 °F 30.1 in South 2 mph 5 mph 88% 0 in BKN
06:45 50.4 °F 46.9 °F 30.1 in SE 2 mph 6 mph 88% 0 in BKN
06:50 50.2 °F 46.8 °F 30.1 in SSE 2 mph 5 mph 88% 0 in OVC
06:55 50 °F 46.6 °F 30.1 in SSE 2 mph 6 mph 88% 0 in OVC
07:00 49.8 °F 46.8 °F 30.1 in SSE 2 mph 6 mph 89% 0 in FEW
07:05 49.6 °F 46.6 °F 30.1 in SSW 3 mph 5 mph 89% 0 in OVC
07:10 49.6 °F 46.6 °F 30.1 in SSW 3 mph 5 mph 89% 0 in OVC
07:15 49.6 °F 46.6 °F 30.1 in SSW 2 mph 5 mph 89% 0 in OVC
07:20 49.6 °F 46.6 °F 30.1 in South 2 mph 5 mph 89% 0 in BKN
07:25 49.6 °F 46.6 °F 30.1 in SSE 3 mph 5 mph 89% 0 in BKN
07:30 49.6 °F 46.6 °F 30.1 in SSE 3 mph 6 mph 89% 0 in BKN
07:35 49.6 °F 46.6 °F 30.1 in SSE 3 mph 6 mph 89% 0 in BKN
07:40 49.5 °F 46.4 °F 30.1 in South 3 mph 5 mph 89% 0 in BKN
07:45 49.5 °F 46 °F 30.1 in SSE 3 mph 7 mph 88% 0 in BKN
07:50 49.5 °F 46 °F 30.1 in South 3 mph 9 mph 88% 0 in BKN
07:55 49.5 °F 46 °F 30.1 in SSE 6 mph 9 mph 88% 0 in BKN
08:00 49.5 °F 46 °F 30.1 in South 6 mph 10 mph 88% 0 in BKN
08:05 49.5 °F 46 °F 30.1 in SSW 5 mph 12 mph 88% 0 in BKN
08:10 49.6 °F 45.9 °F 30.1 in SSW 5 mph 12 mph 87% 0 in BKN
08:15 49.6 °F 45.9 °F 30.1 in SSW 5 mph 7 mph 87% 0 in BKN
08:20 49.6 °F 45.9 °F 30.1 in SSW 5 mph 5 mph 87% 0 in BKN
08:25 49.6 °F 45.9 °F 30.1 in SSW 2 mph 6 mph 87% 0 in BKN
08:30 49.6 °F 45.9 °F 30.1 in SSW 2 mph 6 mph 87% 0 in BKN
08:35 49.6 °F 45.7 °F 30.1 in South 3 mph 7 mph 86% 0 in BKN
08:40 49.8 °F 45.9 °F 30.1 in SSW 3 mph 7 mph 86% 0 in BKN
08:45 49.8 °F 45.9 °F 30.1 in SSW 3 mph 5 mph 86% 0 in BKN
08:50 49.8 °F 45.9 °F 30.1 in South 3 mph 5 mph 86% 0 in BKN
08:55 49.8 °F 45.9 °F 30.1 in SSW 2 mph 6 mph 86% 0 in BKN
09:00 50 °F 46 °F 30.1 in SSE 2 mph 5 mph 86% 0 in OVC
09:05 50.2 °F 46.2 °F 30.1 in South 2.4 mph   86% 0 in BKN
09:10 50.2 °F 46.2 °F 30.1 in SSE 2 mph 5 mph 86% 0 in BKN
09:15 50.2 °F 46 °F 30.1 in SSE 2 mph 5 mph 86% 0 in BKN
09:20 50.2 °F 46 °F 30.1 in SSE 2 mph 3 mph 86% 0 in OVC
09:25 50 °F 46 °F 30.1 in SSE 2 mph 5 mph 86% 0 in OVC
09:30 49.8 °F 45.9 °F 30.1 in SSE 2 mph 5 mph 86% 0 in OVC
09:35 49.8 °F 45.9 °F 30.1 in South 3 mph 5 mph 86% 0 in OVC
09:40 49.8 °F 46 °F 30.1 in South 3 mph 5 mph 87% 0 in OVC
09:45 50 °F 46.2 °F 30.1 in South 3.1 mph 5.8 mph 87% 0 in OVC
09:50 50 °F 46.2 °F 30.1 in South 3 mph 6 mph 87% 0 in OVC
09:55 50.2 °F 46.2 °F 30.1 in South 5 mph 7 mph 86% 0 in OVC
10:00 50.2 °F 46.2 °F 30.1 in South 5 mph 9 mph 86% 0 in OVC
10:05 50.4 °F 46 °F 30.1 in SSE 5 mph 9 mph 85% 0 in OVC
10:10 50.4 °F 46 °F 30.1 in South 5 mph 7 mph 85% 0 in OVC
10:15 50.4 °F 46 °F 30.1 in South 5 mph 9 mph 85% 0 in OVC
10:20 50.4 °F 45.7 °F 30.1 in South 5 mph 7 mph 84% 0 in OVC
10:25 50.5 °F 45.9 °F 30.2 in South 5 mph 7 mph 84% 0 in OVC
10:30 50.5 °F 45.9 °F 30.2 in SSW 5 mph 7 mph 84% 0 in OVC
10:35 50.7 °F 46 °F 30.2 in SSW 5 mph 6 mph 84% 0 in OVC
10:40 50.7 °F 46 °F 30.2 in SSW 5 mph 7 mph 84% 0 in OVC
10:45 50.9 °F 46.2 °F 30.2 in SW 5 mph 7 mph 84% 0 in OVC
10:50 50.9 °F 46 °F 30.2 in SSW 5 mph 7 mph 83% 0 in BKN
10:55 51.1 °F 46 °F 30.2 in SSW 5 mph 7 mph 83% 0 in BKN
11:00 51.1 °F 46 °F 30.2 in SSW 5 mph 7 mph 83% 0 in OVC
11:05 51.3 °F 46.2 °F 30.2 in South 5 mph 6 mph 83% 0 in BKN
11:10 51.3 °F 46.2 °F 30.2 in South 5 mph 8 mph 83% 0 in BKN
11:15 51.4 °F 46.4 °F 30.2 in SSW 5 mph 9 mph 83% 0 in BKN
11:20 51.4 °F 46.4 °F 30.2 in SSW 5 mph 10 mph 83% 0 in OVC
11:25 51.4 °F 46.6 °F 30.2 in SSW 6 mph 9 mph 83% 0 in OVC
11:30 51.6 °F 46.6 °F 30.2 in SSW 6 mph 7 mph 83% 0 in OVC
11:35 51.8 °F 46.8 °F 30.2 in South 5 mph 7 mph 83% 0 in OVC
11:40 51.8 °F 46.6 °F 30.2 in SSE 5 mph 9 mph 82% 0 in OVC
11:45 51.6 °F 46.2 °F 30.2 in South 6 mph 10 mph 82% 0 in OVC
11:50 51.6 °F 46.2 °F 30.2 in South 6 mph 7 mph 82% 0 in OVC
11:55 51.6 °F 46.2 °F 30.2 in SSE 5 mph 9 mph 82% 0 in OVC
12:00 51.6 °F 46 °F 30.2 in SE 5 mph 8 mph 81% 0 in OVC
12:05 52 °F 46.8 °F 30.2 in SE 5 mph 7 mph 82% 0 in OVC
12:10 52.2 °F 46.4 °F 30.2 in SE 5 mph 8 mph 81% 0 in OVC
12:15 52.3 °F 46.8 °F 30.2 in SSE 5 mph 5 mph 81% 0 in OVC
12:20 52.3 °F 46.8 °F 30.2 in SSE 5 mph 5 mph 81% 0 in SCT
12:25 52.7 °F 47.1 °F 30.2 in SSE 2 mph 4 mph 81% 0 in SCT
12:30 53.1 °F 47.1 °F 30.2 in South 2 mph 5 mph 80% 0 in SCT
12:35 53.4 °F 47.1 °F 30.2 in SW 2 mph 6 mph 79% 0 in SCT
12:40 54 °F 47.7 °F 30.2 in WSW 2 mph 5 mph 79% 0 in SCT
12:45 54.3 °F 47.7 °F 30.2 in West 2 mph 6 mph 78% 0 in SCT
12:50 54.7 °F 47.7 °F 30.2 in West 2 mph 6 mph 77% 0 in BKN
12:55 54.9 °F 47.8 °F 30.1 in WNW 2 mph 5 mph 77% 0 in BKN
13:00 55.2 °F 47.7 °F 30.1 in WNW 2 mph 5 mph 76% 0 in BKN
13:05 55.6 °F 48 °F 30.1 in West 2 mph 5 mph 76% 0 in BKN
13:10 55.9 °F 48 °F 30.1 in NW 2 mph 5 mph 75% 0 in BKN
13:15 56.1 °F 48.4 °F 30.1 in NW 2 mph 6 mph 75% 0 in BKN
13:20 55.9 °F 48 °F 30.1 in WNW 2 mph 6 mph 75% 0 in BKN
13:25 55.8 °F 48 °F 30.1 in WNW 3 mph 6 mph 75% 0 in BKN
13:30 55.8 °F 48 °F 30.1 in WNW 3 mph 6 mph 75% 0 in BKN
13:35 55.8 °F 48.4 °F 30.1 in WNW 5 mph 7 mph 76% 0 in BKN
13:40 55.9 °F 48 °F 30.1 in WNW 5 mph 5 mph 75% 0 in BKN
13:45 55.9 °F 48 °F 30.1 in West 3.1 mph 5.8 mph 75% 0 in BKN
13:50 55.9 °F 48 °F 30.1 in West 3 mph 6 mph 75% 0 in SCT
13:55 56.1 °F 48.4 °F 30.1 in WNW 3 mph 5 mph 75% 0 in SCT
14:00 56.5 °F 48.6 °F 30.1 in NW 3 mph 6 mph 75% 0 in OVC
14:05 56.5 °F 48.6 °F 30.1 in WNW 3 mph 6 mph 75% 0 in SCT
14:10 56.5 °F 48.6 °F 30.1 in West 3 mph 7 mph 75% 0 in SCT
14:15 56.5 °F 48.6 °F 30.1 in WSW 5 mph 7 mph 75% 0 in SCT
14:20 56.7 °F 48.6 °F 30.1 in West 5 mph 5 mph 74% 0 in BKN
14:25 56.5 °F 48.6 °F 30.1 in West 2 mph 6 mph 75% 0 in BKN
14:30 56.7 °F 48.6 °F 30.1 in West 2 mph 7 mph 74% 0 in BKN
14:35 56.5 °F 48.4 °F 30.1 in SW 3 mph 8 mph 74% 0 in BKN
14:40 56.5 °F 48.4 °F 30.1 in SW 3 mph 7 mph 74% 0 in BKN
14:45 56.5 °F 48.4 °F 30.1 in SW 5 mph 7 mph 74% 0 in BKN
14:50 56.7 °F 48.6 °F 30.1 in WSW 5 mph 9 mph 74% 0 in BKN
14:55 56.7 °F 48.6 °F 30.1 in WSW 5 mph 9 mph 74% 0 in BKN
15:00 56.7 °F 48.6 °F 30.1 in WSW 5 mph 7 mph 74% 0 in OVC
15:05 56.7 °F 48.6 °F 30.1 in WSW 4 mph 6.9 mph 74% 0 in BKN
15:10 56.7 °F 48.6 °F 30.1 in West 4 mph 3.5 mph 74% 0 in BKN
15:15 56.8 °F 48.6 °F 30.1 in West 3 mph 5 mph 74% 0 in BKN
15:20 56.8 °F 48.6 °F 30.1 in WNW 3 mph 6 mph 74% 0 in BKN
15:25 56.8 °F 48.6 °F 30.1 in NW 2 mph 5 mph 74% 0 in BKN
15:30 57 °F 48.7 °F 30.1 in NNW 2.9 mph 4.6 mph 74% 0 in BKN
15:35 57.2 °F 49.3 °F 30.1 in North 2 mph 5 mph 75% 0 in BKN
15:40 57.4 °F 49.3 °F 30.1 in NNE 2 mph 7 mph 74% 0 in BKN
15:45 57.7 °F 49.8 °F 30.1 in NNE 3 mph 8 mph 75% 0 in BKN
15:50 57.9 °F 49.6 °F 30.1 in NNE 3 mph 10 mph 74% 0 in SCT
15:55 57.9 °F 49.6 °F 30.1 in NNE 6 mph 7 mph 74% 0 in SCT
16:00 58.3 °F 50.4 °F 30.1 in North 6 mph 8 mph 75% 0 in OVC
16:05 58.5 °F 50.2 °F 30.1 in NNE 3 mph 9 mph 74% 0 in SCT
16:10 58.5 °F 50.2 °F 30.1 in NE 3 mph 7 mph 74% 0 in SCT
16:15 58.3 °F 50 °F 30.1 in NE 3 mph 7 mph 74% 0 in SCT
16:20 58.1 °F 50.2 °F 30.1 in NE 3 mph 6 mph 75% 0 in SCT
16:25 57.9 °F 50.2 °F 30.1 in NE 2 mph 4 mph 75% 0 in SCT
16:30 58.3 °F 50.7 °F 30.1 in NE 2 mph   76% 0 in SCT
16:35 58.3 °F 50.7 °F 30.1 in Calm   4 mph 76% 0 in SCT
16:40 58.3 °F 50.7 °F 30.1 in Calm   5 mph 76% 0 in SCT
16:45 58.1 °F 50.5 °F 30.1 in North 2 mph 5 mph 76% 0 in SCT
16:50 58.1 °F 50.9 °F 30.1 in NNW 2 mph 5 mph 77% 0 in SCT
16:55 57.9 °F 50.7 °F 30.1 in NW 2 mph 5 mph 77% 0 in SCT
17:00 57.9 °F 50.7 °F 30.1 in NNW 2 mph 4 mph 77% 0 in BKN
17:05 57.9 °F 50.7 °F 30.1 in NNW 2 mph 3 mph 77% 0 in SCT
17:10 57.9 °F 50.7 °F 30.1 in NNW 2 mph 3 mph 77% 0 in SCT
17:15 57.7 °F 50.7 °F 30.1 in NNW 1 mph 3 mph 77% 0 in SCT
17:20 57.7 °F 50.5 °F 30.1 in North 1 mph 5 mph 77% 0 in SCT
17:25 57.7 °F 50.5 °F 30.1 in NNE 1 mph 2 mph 77% 0 in SCT
17:30 57.7 °F 50.9 °F 30.1 in NE 1 mph   78% 0 in SCT
17:35 57.7 °F 50.9 °F 30.1 in Calm   2 mph 78% 0 in SCT
17:40 57.7 °F 50.9 °F 30.1 in Calm   5 mph 78% 0 in SCT
17:45 57.6 °F 50.4 °F 30.1 in SE 2 mph 5 mph 77% 0 in SCT
17:50 57.6 °F 50.4 °F 30.1 in SE 2 mph 3 mph 77% 0 in BKN
17:55 57.4 °F 50.5 °F 30.1 in East 1 mph 2 mph 78% 0 in BKN
18:00 57.4 °F 49.8 °F 30.1 in East 1 mph 5 mph 76% 0 in BKN
18:05 57 °F 49.5 °F 30.1 in South 2 mph 5 mph 76% 0 in BKN
18:10 56.7 °F 49.3 °F 30.1 in SSW 2 mph 6 mph 76% 0 in BKN
18:15 56.3 °F 48.7 °F 30.1 in SSW 3 mph 5 mph 76% 0 in BKN
18:20 56.1 °F 48.9 °F 30.1 in SSW 3 mph 2 mph 77% 0 in BKN
18:25 56.1 °F 48.9 °F 30.1 in SW 2 mph 5 mph 77% 0 in BKN
18:30 55.9 °F 48.7 °F 30.1 in WNW 2 mph 3 mph 77% 0 in BKN
18:35 55.9 °F 49.3 °F 30.1 in NW 1 mph 2 mph 78% 0 in BKN
18:40 56.1 °F 49.6 °F 30.1 in NNW 1 mph 4 mph 79% 0 in BKN
18:45 56.1 °F 49.6 °F 30.1 in ESE 1 mph 5 mph 79% 0 in BKN
18:50 56.1 °F 50 °F 30.1 in ENE 1 mph 5 mph 80% 0 in BKN
18:55 56.1 °F 50 °F 30.1 in NE 2 mph 3 mph 80% 0 in BKN
19:00 56.1 °F 50.4 °F 30.1 in ENE 2 mph 5 mph 81% 0 in OVC
19:05 56.1 °F 50.4 °F 30.1 in East 2 mph 5 mph 81% 0 in BKN
19:10 56.1 °F 50.7 °F 30.1 in ESE 2 mph 5 mph 82% 0 in BKN
19:15 56.1 °F 50.7 °F 30.1 in ESE 2 mph 4 mph 82% 0 in BKN
19:20 55.9 °F 50.5 °F 30.1 in ESE 2 mph 5 mph 82% 0 in BKN
19:25 55.9 °F 50.5 °F 30.1 in SE 2 mph 3 mph 82% 0 in BKN
19:30 55.8 °F 50.4 °F 30.1 in SSE 2 mph 5 mph 82% 0 in BKN
19:35 55.8 °F 50 °F 30.1 in SSE 2 mph 5 mph 81% 0 in BKN
19:40 55.8 °F 49.6 °F 30.1 in South 2 mph 5 mph 80% 0 in BKN
19:45 55.8 °F 49.6 °F 30.1 in SSW 2 mph 3 mph 80% 0 in BKN
19:50 55.6 °F 49.6 °F 30.1 in South 2 mph 5 mph 80% 0 in SCT
19:55 55.8 °F 49.6 °F 30.1 in SE 2 mph 5 mph 80% 0 in SCT
20:00 55.8 °F 49.6 °F 30.1 in SSE 2 mph 4 mph 80% 0 in OVC
20:05 55.8 °F 49.6 °F 30.1 in SE 2 mph 5 mph 80% 0 in SCT
20:10 55.8 °F 49.6 °F 30.1 in SE 2 mph 7 mph 80% 0 in SCT
20:15 55.8 °F 49.6 °F 30.1 in SE 2 mph 4 mph 80% 0 in SCT
20:20 55.8 °F 49.6 °F 30.1 in ESE 2 mph 7 mph 80% 0 in SCT
20:25 55.8 °F 49.6 °F 30.1 in East 2 mph 5 mph 80% 0 in SCT
20:30 55.8 °F 50 °F 30.1 in East 2 mph 3 mph 81% 0 in SCT
20:35 55.6 °F 49.8 °F 30.1 in ESE 2 mph 5 mph 81% 0 in SCT
20:40 55.6 °F 49.8 °F 30.1 in ESE 2 mph 4 mph 81% 0 in SCT
20:45 55.6 °F 50.2 °F 30.1 in SE 1 mph 3 mph 82% 0 in SCT
20:50 55.6 °F 50.2 °F 30.1 in SE 1.4 mph   82% 0 in BKN
20:55 55.6 °F 50 °F 30.1 in Calm     82% 0 in BKN
21:00 55.6 °F 50.2 °F 30.1 in Calm   3 mph 82% 0 in OVC
21:05 55.6 °F 50.2 °F 30.1 in Calm   1 mph 82% 0 in BKN
21:10 55.6 °F 50.2 °F 30.1 in Calm     82% 0 in BKN
21:15 55.6 °F 50.2 °F 30.1 in Calm   3 mph 82% 0 in BKN
21:20 55.6 °F 50.2 °F 30.1 in Calm   3 mph 82% 0 in SCT
21:25 55.4 °F 50 °F 30.1 in West 1.4 mph 4.6 mph 82% 0 in SCT
21:30 55.2 °F 49.8 °F 30.1 in WSW 1 mph 5 mph 82% 0 in SCT
21:35 55.2 °F 49.8 °F 30.1 in West 2 mph 2 mph 82% 0 in SCT
21:40 55.2 °F 49.8 °F 30.1 in West 2 mph   82% 0 in SCT
21:45 55.2 °F 49.8 °F 30.1 in Calm     82% 0 in SCT
21:50 55 °F 49.6 °F 30.1 in Calm   3 mph 82% 0 in FEW
21:55 55 °F 49.6 °F 30.1 in Calm     82% 0 in FEW
22:00 54.9 °F 49.5 °F 30.1 in Calm   2 mph 82% 0 in OVC
22:05 54.9 °F 49.5 °F 30.1 in Calm   3 mph 82% 0 in FEW
22:10 54.9 °F 49.8 °F 30.1 in Calm   7 mph 83% 0 in FEW
22:15 54.7 °F 49.6 °F 30.1 in East 2 mph 5 mph 83% 0 in FEW
22:20 54.3 °F 49.6 °F 30.1 in East 2 mph 5 mph 84% 0 in FEW
22:25 54.1 °F 49.5 °F 30.1 in East 2 mph 4 mph 84% 0 in FEW
22:30 54 °F 49.6 °F 30.1 in East 2 mph 5 mph 85% 0 in FEW
22:35 53.8 °F 49.5 °F 30.1 in ESE 2 mph 4 mph 85% 0 in FEW
22:40 53.8 °F 49.5 °F 30.1 in ESE 2 mph 1 mph 85% 0 in FEW
22:45 53.8 °F 49.5 °F 30.1 in Calm   2 mph 85% 0 in FEW
22:50 53.8 °F 49.5 °F 30.1 in Calm   1 mph 85% 0 in CLR
22:55 53.8 °F 49.5 °F 30.1 in Calm     85% 0 in CLR
23:00 53.8 °F 49.3 °F 30.1 in Calm     85% 0 in OVC
23:05 53.8 °F 49.5 °F 30.1 in Calm     85% 0 in CLR
23:10 53.8 °F 49.6 °F 30.1 in Calm   2 mph 86% 0 in CLR
23:15 53.8 °F 49.6 °F 30.1 in Calm     86% 0 in CLR
23:20 54 °F 49.8 °F 30.1 in Calm     86% 0 in CLR
23:25 54 °F 49.8 °F 30.1 in Calm     86% 0 in CLR
23:30 54 °F 49.8 °F 30.1 in Calm   2 mph 86% 0 in CLR
23:35 54 °F 49.8 °F 30.1 in SE 1 mph 3 mph 86% 0 in CLR
23:40 53.8 °F 49.6 °F 30.1 in SW 1 mph 3 mph 86% 0 in CLR
23:45 53.8 °F 49.6 °F 30.1 in SW 2 mph 2 mph 86% 0 in CLR
23:50 53.8 °F 49.6 °F 30.1 in WSW 2 mph 4 mph 86% 0 in FEW
23:55 53.4 °F 49.6 °F 30.1 in WSW 2 mph 4 mph 87% 0 in FEW
Murcia-Puente Tocinos, España
Compliments of Weather Underground - 2.75 mb

La estación de MeteoMurcia.com, publica sus datos en los siguientes proyectos:

Weather Underground PWS IMURCIAP2 Meteoclimatic www.awekas.at

W3Counter
Web Analytics